Time;durP1;ratioP1;P1;durP2;ratioP2;P2;SDS_P1;SDS_P2;PMS_P1;PMS_P2;Temp;Humidity;BMP_temperature;BMP_pressure;BME280_temperature;BME280_humidity;BME280_pressure;Samples;Min_cycle;Max_cycle;Signal;HPM_P1;HPM_P2
2021/06/12 00:01:16;;;;;;;;;3.25;1.50;;;;;;;;4963066;28;45482;-79
2021/06/12 00:03:42;;;;;;;;;2.00;2.00;;;;;;;;4979524;28;45856;-78
2021/06/12 00:06:07;;;;;;;;;1.75;1.75;;;;;;;;4979017;28;48539;-79
2021/06/12 00:08:32;;;;;;;;;1.00;1.00;;;;;;;;4983767;28;54416;-79
2021/06/12 00:11:00;;;;;;;;;0.50;0.50;;;;;;;;4979130;28;45588;-79
2021/06/12 00:13:25;;;;;;;;;2.00;0.50;;;;;;;;4980194;28;45464;-79
2021/06/12 00:15:51;;;;;;;;;1.50;1.50;;;;;;;;4984737;28;45554;-79
2021/06/12 00:18:16;;;;;;;;;1.00;1.00;;;;;;;;4974045;28;46069;-79
2021/06/12 00:20:41;;;;;;;;;1.50;1.50;;;;;;;;4979390;28;45721;-79
2021/06/12 00:23:07;;;;;;;;;1.75;1.75;;;;;;;;4976853;28;45534;-78
2021/06/12 00:25:33;;;;;;;;;2.00;2.00;;;;;;;;4983424;28;45774;-79
2021/06/12 00:28:00;;;;;;;;;1.50;1.50;;;;;;;;4985020;28;44857;-79
2021/06/12 00:30:25;;;;;;;;;0.50;0.50;;;;;;;;4981278;28;45604;-78
2021/06/12 00:32:52;;;;;;;;;0.75;0.75;;;;;;;;4983752;28;48914;-79
2021/06/12 00:35:18;;;;;;;;;2.25;1.75;;;;;;;;4986729;28;45449;-79
2021/06/12 00:37:43;;;;;;;;;0.75;0.50;;;;;;;;4965697;28;46280;-79
2021/06/12 00:40:10;;;;;;;;;1.75;1.75;;;;;;;;4976631;28;45694;-79
2021/06/12 00:42:37;;;;;;;;;1.50;1.50;;;;;;;;4980508;28;45541;-78
2021/06/12 00:45:04;;;;;;;;;2.50;2.50;;;;;;;;4976516;28;46532;-79
2021/06/12 00:47:29;;;;;;;;;5.00;1.50;;;;;;;;4963994;28;46344;-78
2021/06/12 00:49:54;;;;;;;;;1.50;1.50;;;;;;;;4982173;28;45504;-79
2021/06/12 00:52:19;;;;;;;;;1.50;1.50;;;;;;;;4968516;28;46419;-79
2021/06/12 00:54:44;;;;;;;;;4.00;1.33;;;;;;;;4976430;28;46160;-79
2021/06/12 00:57:10;;;;;;;;;3.50;2.50;;;;;;;;4980453;28;46329;-79
2021/06/12 00:59:35;;;;;;;;;1.25;1.25;;;;;;;;4981735;28;45851;-78
2021/06/12 01:02:00;;;;;;;;;1.75;1.75;;;;;;;;4974635;28;45256;-79
2021/06/12 01:04:26;;;;;;;;;2.00;2.00;;;;;;;;4975932;28;46203;-78
2021/06/12 01:06:52;;;;;;;;;2.50;2.50;;;;;;;;4985947;28;45626;-78
2021/06/12 01:09:18;;;;;;;;;6.00;3.00;;;;;;;;4977115;28;45631;-78
2021/06/12 01:11:53;;;;;;;;;2.25;1.75;;;;;;;;4979151;28;45408;-78
2021/06/12 01:14:21;;;;;;;;;1.25;1.25;;;;;;;;4983619;28;45630;-79
2021/06/12 01:16:50;;;;;;;;;3.50;2.50;;;;;;;;4957547;28;45706;-79
2021/06/12 01:19:33;;;;;;;;;1.75;1.75;;;;;;;;4981874;28;45520;-79
2021/06/12 01:22:01;;;;;;;;;2.50;2.50;;;;;;;;4964995;28;45889;-78
2021/06/12 01:24:26;;;;;;;;;3.00;2.00;;;;;;;;4979152;28;47812;-79
2021/06/12 01:26:54;;;;;;;;;4.00;3.00;;;;;;;;4980995;28;46348;-79
2021/06/12 01:29:44;;;;;;;;;4.00;3.00;;;;;;;;4981681;28;45620;-78
2021/06/12 01:32:10;;;;;;;;;3.25;2.00;;;;;;;;4975618;28;45537;-80
2021/06/12 01:34:36;;;;;;;;;4.25;2.00;;;;;;;;4979109;28;45544;-80
2021/06/12 01:37:02;;;;;;;;;2.25;1.75;;;;;;;;4980931;28;45571;-81
2021/06/12 01:39:28;;;;;;;;;3.00;3.00;;;;;;;;4973976;28;45636;-80
2021/06/12 01:41:56;;;;;;;;;2.75;2.50;;;;;;;;4960614;28;45708;-81
2021/06/12 01:44:22;;;;;;;;;2.50;2.50;;;;;;;;4980089;28;45518;-78
2021/06/12 01:46:48;;;;;;;;;3.00;3.00;;;;;;;;4974738;28;45642;-78
2021/06/12 01:49:18;;;;;;;;;2.50;1.75;;;;;;;;4966432;28;45748;-78
2021/06/12 01:51:44;;;;;;;;;4.25;3.50;;;;;;;;4976859;28;45573;-78
2021/06/12 01:54:10;;;;;;;;;3.25;2.00;;;;;;;;4970605;28;48596;-78
2021/06/12 01:56:35;;;;;;;;;3.25;2.00;;;;;;;;4979178;28;45726;-78
2021/06/12 01:59:01;;;;;;;;;2.00;2.00;;;;;;;;4960950;28;45721;-78
2021/06/12 02:01:26;;;;;;;;;2.00;2.00;;;;;;;;4970109;28;45571;-78
2021/06/12 02:03:53;;;;;;;;;4.25;3.00;;;;;;;;4976735;28;47849;-78
2021/06/12 02:06:19;;;;;;;;;2.75;2.00;;;;;;;;4977914;28;45728;-78
2021/06/12 02:08:45;;;;;;;;;4.00;2.75;;;;;;;;4951955;28;45969;-79
2021/06/12 02:11:15;;;;;;;;;5.00;3.50;;;;;;;;4969717;28;45553;-78
2021/06/12 02:13:41;;;;;;;;;3.00;3.00;;;;;;;;4974339;28;45614;-78
2021/06/12 02:16:07;;;;;;;;;3.75;3.00;;;;;;;;4984491;28;45572;-78
2021/06/12 02:18:32;;;;;;;;;2.75;2.75;;;;;;;;4972984;28;45672;-78
2021/06/12 02:20:59;;;;;;;;;4.00;3.75;;;;;;;;4976689;28;45584;-78
2021/06/12 02:23:26;;;;;;;;;3.00;3.00;;;;;;;;4982552;28;51080;-78
2021/06/12 02:25:52;;;;;;;;;4.75;3.00;;;;;;;;4973750;28;45936;-78
2021/06/12 02:28:17;;;;;;;;;3.25;2.75;;;;;;;;4960057;28;45524;-78
2021/06/12 02:30:45;;;;;;;;;5.50;3.25;;;;;;;;4981123;28;45474;-77
2021/06/12 02:33:13;;;;;;;;;3.00;3.00;;;;;;;;4975286;28;46277;-78
2021/06/12 02:35:38;;;;;;;;;4.00;2.50;;;;;;;;4981990;28;45553;-78
2021/06/12 02:38:04;;;;;;;;;3.00;3.00;;;;;;;;4957869;28;62006;-80
2021/06/12 02:40:29;;;;;;;;;3.75;3.50;;;;;;;;4974063;28;45604;-79
2021/06/12 02:42:54;;;;;;;;;4.00;2.75;;;;;;;;4970816;28;48304;-78
2021/06/12 02:45:20;;;;;;;;;3.75;3.00;;;;;;;;4976303;28;45657;-78
2021/06/12 02:47:52;;;;;;;;;3.50;3.00;;;;;;;;4984533;28;45572;-78
2021/06/12 02:50:19;;;;;;;;;2.00;2.00;;;;;;;;4980271;28;45458;-79
2021/06/12 02:52:45;;;;;;;;;3.00;2.00;;;;;;;;4974482;28;46578;-78
2021/06/12 02:55:11;;;;;;;;;2.25;2.25;;;;;;;;4981682;28;45398;-78
2021/06/12 02:57:38;;;;;;;;;2.75;2.75;;;;;;;;4977262;28;45979;-78
2021/06/12 03:00:04;;;;;;;;;3.25;3.25;;;;;;;;4976580;28;52228;-78
2021/06/12 03:02:31;;;;;;;;;4.00;3.00;;;;;;;;4979000;28;47452;-77
2021/06/12 03:04:57;;;;;;;;;3.25;2.00;;;;;;;;4962676;28;45808;-78
2021/06/12 03:07:23;;;;;;;;;3.00;2.00;;;;;;;;4984740;28;45605;-78
2021/06/12 03:09:48;;;;;;;;;1.00;1.00;;;;;;;;4978925;28;45581;-78
2021/06/12 03:12:15;;;;;;;;;1.75;1.75;;;;;;;;4980441;28;45629;-78
2021/06/12 03:14:41;;;;;;;;;1.75;1.75;;;;;;;;4980708;28;45796;-77
2021/06/12 03:17:07;;;;;;;;;5.00;3.00;;;;;;;;4975683;28;45635;-78
2021/06/12 03:19:33;;;;;;;;;2.00;2.00;;;;;;;;4981525;28;45630;-80
2021/06/12 03:22:00;;;;;;;;;1.25;1.25;;;;;;;;4962666;28;47369;-78
2021/06/12 03:24:27;;;;;;;;;2.00;1.50;;;;;;;;4978124;28;45677;-78
2021/06/12 03:26:53;;;;;;;;;3.25;1.00;;;;;;;;4986222;28;45362;-78
2021/06/12 03:31:54;;;;;;;;;2.00;2.00;;;;;;;;5286960;23;45649;-78
2021/06/12 03:34:20;;;;;;;;;5.25;1.00;;;;;;;;4967771;28;47741;-78
2021/06/12 03:36:46;;;;;;;;;0.25;0.25;;;;;;;;4959351;28;45462;-78
2021/06/12 03:39:11;;;;;;;;;1.00;1.00;;;;;;;;4955211;28;45612;-78
2021/06/12 03:41:37;;;;;;;;;1.00;1.00;;;;;;;;4945301;28;47246;-81
2021/06/12 03:44:03;;;;;;;;;3.25;1.00;;;;;;;;4952080;28;46214;-80
2021/06/12 03:46:28;;;;;;;;;1.00;1.00;;;;;;;;4962151;28;45498;-77
2021/06/12 03:48:54;;;;;;;;;1.75;1.00;;;;;;;;4966446;28;45402;-80
2021/06/12 03:51:20;;;;;;;;;1.75;1.25;;;;;;;;4942347;28;48624;-80
2021/06/12 03:53:47;;;;;;;;;0.75;0.75;;;;;;;;4945825;28;45622;-80
2021/06/12 03:56:13;;;;;;;;;2.00;1.25;;;;;;;;4952395;28;46096;-80
2021/06/12 03:58:40;;;;;;;;;0.25;0.25;;;;;;;;4958344;28;46535;-80
2021/06/12 04:01:05;;;;;;;;;0.75;0.75;;;;;;;;4963511;28;57682;-80
2021/06/12 04:03:31;;;;;;;;;1.00;1.00;;;;;;;;4957793;28;45647;-80
2021/06/12 04:05:56;;;;;;;;;1.00;1.00;;;;;;;;4964541;28;45391;-81
2021/06/12 04:08:21;;;;;;;;;1.00;1.00;;;;;;;;4941008;28;46681;-80
2021/06/12 04:10:46;;;;;;;;;0.25;0.25;;;;;;;;4955393;28;46268;-80
2021/06/12 04:13:12;;;;;;;;;0.25;0.25;;;;;;;;4961496;28;46263;-81
2021/06/12 04:15:37;;;;;;;;;0.00;0.00;;;;;;;;4960939;28;45647;-81
2021/06/12 04:18:08;;;;;;;;;0.00;0.00;;;;;;;;4957593;28;45596;-81
2021/06/12 04:20:37;;;;;;;;;2.50;1.00;;;;;;;;4947662;28;46198;-81
2021/06/12 04:23:03;;;;;;;;;1.00;1.00;;;;;;;;4945476;28;47056;-80
2021/06/12 04:25:28;;;;;;;;;0.25;0.25;;;;;;;;4925785;28;47276;-80
2021/06/12 04:27:53;;;;;;;;;1.00;1.00;;;;;;;;4941455;28;45459;-78
2021/06/12 04:30:20;;;;;;;;;1.00;1.00;;;;;;;;4960006;28;46375;-80
2021/06/12 04:32:45;;;;;;;;;1.25;1.00;;;;;;;;4963706;28;45493;-81
2021/06/12 04:35:11;;;;;;;;;1.00;1.00;;;;;;;;4959970;28;45713;-80
2021/06/12 04:37:36;;;;;;;;;3.00;1.75;;;;;;;;4957847;28;45503;-81
2021/06/12 04:40:02;;;;;;;;;1.00;1.00;;;;;;;;4954959;28;46725;-81
2021/06/12 04:42:27;;;;;;;;;1.00;1.00;;;;;;;;4955957;28;45652;-80
2021/06/12 04:44:52;;;;;;;;;1.00;1.00;;;;;;;;4965024;28;45790;-80
2021/06/12 04:47:18;;;;;;;;;2.75;1.75;;;;;;;;4960152;28;45527;-81
2021/06/12 04:49:43;;;;;;;;;1.00;1.00;;;;;;;;4956585;28;48340;-81
2021/06/12 04:52:08;;;;;;;;;1.25;1.25;;;;;;;;4957774;28;45485;-81
2021/06/12 04:54:34;;;;;;;;;1.50;1.50;;;;;;;;4958068;28;46536;-81
2021/06/12 04:56:59;;;;;;;;;1.00;1.00;;;;;;;;4959726;28;45801;-82
2021/06/12 04:59:24;;;;;;;;;1.00;1.00;;;;;;;;4955619;28;47001;-79
2021/06/12 05:01:49;;;;;;;;;3.00;2.00;;;;;;;;4954342;28;48377;-80
2021/06/12 05:04:15;;;;;;;;;2.25;1.50;;;;;;;;4965214;28;45556;-80
2021/06/12 05:06:40;;;;;;;;;0.00;0.00;;;;;;;;4956394;28;46001;-79
2021/06/12 05:09:05;;;;;;;;;1.00;1.00;;;;;;;;4956802;28;45512;-80
2021/06/12 05:11:31;;;;;;;;;2.00;1.00;;;;;;;;4966104;28;45484;-80
2021/06/12 05:14:04;;;;;;;;;2.50;1.00;;;;;;;;4949405;28;46163;-81
2021/06/12 05:16:33;;;;;;;;;1.00;1.00;;;;;;;;4942484;28;45612;-80
2021/06/12 05:18:58;;;;;;;;;1.00;1.00;;;;;;;;4937463;28;56317;-80
2021/06/12 05:21:23;;;;;;;;;1.00;1.00;;;;;;;;4938152;28;45767;-80
2021/06/12 05:23:48;;;;;;;;;0.75;0.75;;;;;;;;4956710;28;45458;-77
2021/06/12 05:26:14;;;;;;;;;2.50;1.00;;;;;;;;4947319;28;45845;-80
2021/06/12 05:28:40;;;;;;;;;1.00;1.00;;;;;;;;4958236;28;45710;-80
2021/06/12 05:31:05;;;;;;;;;1.00;1.00;;;;;;;;4940660;28;45680;-80
2021/06/12 05:33:32;;;;;;;;;1.00;1.00;;;;;;;;4958386;28;45586;-80
2021/06/12 05:35:58;;;;;;;;;1.00;1.00;;;;;;;;4954655;28;45519;-80
2021/06/12 05:38:25;;;;;;;;;1.50;1.00;;;;;;;;4945547;28;45663;-82
2021/06/12 05:40:50;;;;;;;;;1.00;1.00;;;;;;;;4958044;28;45497;-81
2021/06/12 05:43:16;;;;;;;;;1.00;1.00;;;;;;;;4940937;28;45670;-81
2021/06/12 05:45:41;;;;;;;;;1.25;1.25;;;;;;;;4959115;28;45575;-81
2021/06/12 05:48:06;;;;;;;;;2.00;2.00;;;;;;;;4946263;28;54217;-80
2021/06/12 05:50:31;;;;;;;;;2.00;2.00;;;;;;;;4935795;28;46348;-82
2021/06/12 05:52:57;;;;;;;;;2.25;1.00;;;;;;;;4940493;28;45686;-81
2021/06/12 05:55:22;;;;;;;;;1.50;1.00;;;;;;;;4947240;28;45708;-81
2021/06/12 05:57:47;;;;;;;;;1.00;1.00;;;;;;;;4960743;28;46285;-82
2021/06/12 06:00:13;;;;;;;;;2.50;1.00;;;;;;;;4963294;28;47812;-81
2021/06/12 06:02:39;;;;;;;;;2.00;2.00;;;;;;;;4929595;28;45886;-79
2021/06/12 06:05:04;;;;;;;;;1.00;1.00;;;;;;;;4951168;28;45612;-79
2021/06/12 06:07:30;;;;;;;;;2.50;1.50;;;;;;;;4960521;28;45863;-81
2021/06/12 06:09:55;;;;;;;;;0.75;0.75;;;;;;;;4958111;28;45449;-81
2021/06/12 06:12:20;;;;;;;;;3.00;1.67;;;;;;;;4946911;28;45628;-79
2021/06/12 06:14:45;;;;;;;;;1.00;1.00;;;;;;;;4954425;28;48053;-79
2021/06/12 06:17:11;;;;;;;;;1.00;1.00;;;;;;;;4949323;28;50526;-79
2021/06/12 06:19:36;;;;;;;;;1.00;1.00;;;;;;;;4944078;28;45577;-79
2021/06/12 06:22:01;;;;;;;;;1.00;1.00;;;;;;;;4957546;28;45450;-79
2021/06/12 06:24:26;;;;;;;;;3.75;1.00;;;;;;;;4949733;28;56540;-79
2021/06/12 06:26:52;;;;;;;;;1.00;1.00;;;;;;;;4963607;28;45632;-79
2021/06/12 06:29:17;;;;;;;;;1.25;1.00;;;;;;;;4961264;28;45553;-79
2021/06/12 06:31:44;;;;;;;;;2.50;1.00;;;;;;;;4961070;28;45629;-78
2021/06/12 06:34:10;;;;;;;;;1.00;1.00;;;;;;;;4958131;28;45508;-79
2021/06/12 06:36:35;;;;;;;;;2.00;2.00;;;;;;;;4948501;28;45992;-80
2021/06/12 06:39:00;;;;;;;;;0.75;0.75;;;;;;;;4966937;28;45612;-79
2021/06/12 06:41:25;;;;;;;;;3.25;1.00;;;;;;;;4959955;28;45524;-79
2021/06/12 06:43:51;;;;;;;;;1.00;1.00;;;;;;;;4963826;28;45631;-79
2021/06/12 06:46:16;;;;;;;;;1.00;1.00;;;;;;;;4944155;28;47669;-79
2021/06/12 06:48:42;;;;;;;;;3.00;1.75;;;;;;;;4939819;28;47717;-79
2021/06/12 06:51:07;;;;;;;;;0.50;0.50;;;;;;;;4944448;28;45645;-80
2021/06/12 06:53:35;;;;;;;;;0.75;0.25;;;;;;;;4940265;28;46433;-79
2021/06/12 06:56:01;;;;;;;;;1.00;0.75;;;;;;;;4956377;28;47363;-80
2021/06/12 06:58:27;;;;;;;;;0.00;0.00;;;;;;;;4937587;28;45531;-79
2021/06/12 07:00:53;;;;;;;;;0.00;0.00;;;;;;;;4956830;28;45298;-80
2021/06/12 07:03:18;;;;;;;;;0.00;0.00;;;;;;;;4941694;28;45881;-79
2021/06/12 07:05:43;;;;;;;;;2.00;1.00;;;;;;;;4940180;28;48754;-79
2021/06/12 07:08:08;;;;;;;;;2.00;1.00;;;;;;;;4940778;28;46481;-79
2021/06/12 07:10:34;;;;;;;;;1.75;1.75;;;;;;;;4963264;28;45642;-80
2021/06/12 07:13:00;;;;;;;;;1.50;1.50;;;;;;;;4956861;28;45652;-79
2021/06/12 07:15:26;;;;;;;;;1.00;1.00;;;;;;;;4954564;28;45662;-79
2021/06/12 07:17:51;;;;;;;;;1.00;1.00;;;;;;;;4957276;28;45592;-79
2021/06/12 07:20:17;;;;;;;;;1.00;1.00;;;;;;;;4952497;28;46291;-79
2021/06/12 07:22:42;;;;;;;;;1.50;1.25;;;;;;;;4963256;28;45522;-79
2021/06/12 07:25:07;;;;;;;;;1.75;1.25;;;;;;;;4959024;28;45508;-79
2021/06/12 07:27:33;;;;;;;;;1.00;1.00;;;;;;;;4927767;28;46481;-79
2021/06/12 07:29:58;;;;;;;;;1.25;1.25;;;;;;;;4961538;28;45629;-79
2021/06/12 07:32:24;;;;;;;;;1.00;1.00;;;;;;;;4957548;28;45437;-78
2021/06/12 07:34:49;;;;;;;;;1.00;1.00;;;;;;;;4952566;28;45546;-80
2021/06/12 07:37:14;;;;;;;;;1.00;1.00;;;;;;;;4958075;28;49813;-79
2021/06/12 07:39:40;;;;;;;;;2.00;2.00;;;;;;;;4953332;28;45847;-79
2021/06/12 07:42:05;;;;;;;;;3.50;2.00;;;;;;;;4961118;28;45484;-78
2021/06/12 07:44:30;;;;;;;;;2.00;2.00;;;;;;;;4942920;28;48201;-79
2021/06/12 07:46:55;;;;;;;;;3.25;1.00;;;;;;;;4960626;28;45692;-79
2021/06/12 07:49:21;;;;;;;;;1.25;1.25;;;;;;;;4940439;28;45538;-79
2021/06/12 07:51:46;;;;;;;;;3.50;1.75;;;;;;;;4954175;28;45525;-79
2021/06/12 07:54:11;;;;;;;;;2.00;1.00;;;;;;;;4935786;28;47481;-79
2021/06/12 07:56:36;;;;;;;;;1.25;1.25;;;;;;;;4958792;28;45592;-78
2021/06/12 07:59:02;;;;;;;;;2.00;2.00;;;;;;;;4956273;28;48634;-79
2021/06/12 08:01:28;;;;;;;;;4.50;3.00;;;;;;;;4959198;28;46842;-79
2021/06/12 08:03:53;;;;;;;;;2.50;2.00;;;;;;;;4932636;28;52313;-79
2021/06/12 08:06:18;;;;;;;;;3.25;3.00;;;;;;;;4939104;28;45418;-79
2021/06/12 08:08:43;;;;;;;;;4.00;2.75;;;;;;;;4958917;28;45593;-78
2021/06/12 08:11:09;;;;;;;;;3.00;3.00;;;;;;;;4951404;28;45592;-81
2021/06/12 08:13:34;;;;;;;;;3.00;3.00;;;;;;;;4958717;28;46399;-81
2021/06/12 08:15:59;;;;;;;;;2.75;2.75;;;;;;;;4954206;28;45551;-78
2021/06/12 08:18:25;;;;;;;;;2.00;2.00;;;;;;;;4955092;28;45653;-79
2021/06/12 08:20:50;;;;;;;;;2.00;2.00;;;;;;;;4957731;28;45645;-81
2021/06/12 08:23:16;;;;;;;;;2.50;2.50;;;;;;;;4952881;28;46028;-82
2021/06/12 08:25:41;;;;;;;;;4.00;2.50;;;;;;;;4955002;28;45587;-78
2021/06/12 08:28:06;;;;;;;;;2.00;2.00;;;;;;;;4958378;28;45525;-82
2021/06/12 08:30:36;;;;;;;;;2.50;2.50;;;;;;;;5145847;23;45522;-96
2021/06/12 08:33:02;;;;;;;;;2.00;2.00;;;;;;;;4956643;28;45424;-96
2021/06/12 08:38:13;;;;;;;;;3.75;3.00;;;;;;;;5121732;23;46857;-78
2021/06/12 08:40:43;;;;;;;;;6.33;3.00;;;;;;;;4963677;28;45894;-80
2021/06/12 08:53:31;;;;;;;;;4.00;4.00;;;;;;;;5718959;23;46436;-79
2021/06/12 09:04:00;;;;;;;;;4.75;3.25;;;;;;;;4900386;23;46984;-81
2021/06/12 09:09:01;;;;;;;;;7.50;4.25;;;;;;;;5220173;23;45304;-79
2021/06/12 09:16:38;;;;;;;;;5.75;4.50;;;;;;;;5645890;23;45413;-79
2021/06/12 09:19:05;;;;;;;;;5.50;4.75;;;;;;;;4924798;28;45507;-80
2021/06/12 09:24:07;;;;;;;;;5.00;5.00;;;;;;;;4822191;26;45859;-79
2021/06/12 09:26:43;;;;;;;;;7.50;6.00;;;;;;;;4965088;28;45279;-78
2021/06/12 09:29:09;;;;;;;;;7.75;6.50;;;;;;;;4965887;28;45628;-78
2021/06/12 09:31:42;;;;;;;;;7.50;6.75;;;;;;;;4956421;28;45572;-80
2021/06/12 09:36:43;;;;;;;;;10.75;9.25;;;;;;;;4946178;26;46227;-79
2021/06/12 09:39:11;;;;;;;;;10.75;8.75;;;;;;;;4962081;28;45542;-78
2021/06/12 09:41:37;;;;;;;;;7.00;7.00;;;;;;;;4959316;28;45830;-79
2021/06/12 09:44:03;;;;;;;;;7.25;7.25;;;;;;;;4937480;28;47588;-80
2021/06/12 09:46:36;;;;;;;;;12.25;7.50;;;;;;;;4948234;28;46228;-79
2021/06/12 09:49:03;;;;;;;;;8.50;8.00;;;;;;;;4957231;28;45556;-78
2021/06/12 09:51:28;;;;;;;;;10.50;8.50;;;;;;;;4950625;28;45604;-82
2021/06/12 09:53:55;;;;;;;;;6.00;6.00;;;;;;;;4941704;28;47914;-78
2021/06/12 09:56:21;;;;;;;;;10.25;7.75;;;;;;;;4955221;28;47166;-78
2021/06/12 09:58:47;;;;;;;;;9.00;8.00;;;;;;;;4962264;28;45609;-78
2021/06/12 10:01:14;;;;;;;;;7.75;7.75;;;;;;;;4951516;28;46021;-82
2021/06/12 10:03:39;;;;;;;;;9.00;8.50;;;;;;;;4933233;28;46936;-81
2021/06/12 10:06:16;;;;;;;;;8.00;8.00;;;;;;;;4962497;28;46296;-79
2021/06/12 10:08:43;;;;;;;;;8.75;7.00;;;;;;;;4957416;28;46195;-79
2021/06/12 10:11:09;;;;;;;;;10.00;9.00;;;;;;;;4937260;28;45654;-78
2021/06/12 10:13:34;;;;;;;;;9.25;8.25;;;;;;;;4955910;28;45572;-79
2021/06/12 10:16:00;;;;;;;;;10.75;8.00;;;;;;;;4951934;28;45631;-80
2021/06/12 10:18:25;;;;;;;;;10.75;8.75;;;;;;;;4944318;28;45422;-78
2021/06/12 10:20:51;;;;;;;;;7.75;7.00;;;;;;;;4963371;28;45633;-77
2021/06/12 10:23:16;;;;;;;;;13.00;10.00;;;;;;;;4957954;28;46042;-78
2021/06/12 10:25:42;;;;;;;;;13.75;9.25;;;;;;;;4943924;28;45604;-77
2021/06/12 10:28:08;;;;;;;;;10.50;8.00;;;;;;;;4957890;28;45502;-78
2021/06/12 10:30:34;;;;;;;;;10.75;9.00;;;;;;;;4953072;28;45534;-78
2021/06/12 10:32:59;;;;;;;;;8.00;7.75;;;;;;;;4958265;28;46110;-78
2021/06/12 10:35:25;;;;;;;;;8.50;7.50;;;;;;;;4944243;28;46501;-77
2021/06/12 10:37:58;;;;;;;;;14.25;10.00;;;;;;;;4947375;28;48483;-78
2021/06/12 10:40:50;;;;;;;;;10.50;9.75;;;;;;;;4959965;28;45855;-78
2021/06/12 10:43:15;;;;;;;;;11.00;9.00;;;;;;;;4927370;28;48800;-78
2021/06/12 10:45:42;;;;;;;;;9.50;9.00;;;;;;;;4949444;28;45597;-78
2021/06/12 10:48:07;;;;;;;;;12.50;9.00;;;;;;;;4942224;28;45458;-78
2021/06/12 10:50:34;;;;;;;;;12.25;9.00;;;;;;;;4955608;28;45586;-77
2021/06/12 10:53:20;;;;;;;;;12.25;9.00;;;;;;;;4937004;28;46635;-78
2021/06/12 10:55:47;;;;;;;;;7.50;7.00;;;;;;;;4962397;28;45684;-78
2021/06/12 10:58:31;;;;;;;;;8.75;8.00;;;;;;;;4933102;28;45749;-78
2021/06/12 11:01:05;;;;;;;;;10.00;7.25;;;;;;;;4954499;28;47897;-78
2021/06/12 11:03:54;;;;;;;;;9.00;6.00;;;;;;;;4958807;28;45633;-78
2021/06/12 11:06:43;;;;;;;;;5.00;5.00;;;;;;;;4939459;28;46075;-77
2021/06/12 11:09:14;;;;;;;;;5.25;4.00;;;;;;;;4966609;28;45545;-78
2021/06/12 11:11:40;;;;;;;;;6.00;6.00;;;;;;;;4964950;28;46624;-78
2021/06/12 11:14:24;;;;;;;;;6.00;4.75;;;;;;;;4946035;28;47227;-78
2021/06/12 11:17:02;;;;;;;;;6.75;5.50;;;;;;;;4949219;28;45662;-78
2021/06/12 11:19:29;;;;;;;;;6.00;5.00;;;;;;;;4961998;28;45617;-80
2021/06/12 11:22:13;;;;;;;;;3.00;3.00;;;;;;;;4943289;28;55854;-80
2021/06/12 11:24:39;;;;;;;;;4.50;4.50;;;;;;;;4943102;28;47443;-80
2021/06/12 11:27:04;;;;;;;;;4.50;4.00;;;;;;;;4967271;28;45513;-80
2021/06/12 11:29:29;;;;;;;;;6.00;5.00;;;;;;;;4956164;28;45987;-77
2021/06/12 11:31:54;;;;;;;;;5.25;4.75;;;;;;;;4969132;28;45391;-82
2021/06/12 11:34:24;;;;;;;;;5.00;5.00;;;;;;;;4952796;28;54145;-77
2021/06/12 11:36:51;;;;;;;;;3.25;3.25;;;;;;;;4959662;28;45493;-79
2021/06/12 11:39:17;;;;;;;;;6.00;3.25;;;;;;;;4966088;28;45521;-79
2021/06/12 11:41:42;;;;;;;;;4.75;4.75;;;;;;;;4963267;28;45552;-80
2021/06/12 11:44:08;;;;;;;;;4.25;4.00;;;;;;;;4958581;28;46440;-81
2021/06/12 11:46:43;;;;;;;;;5.75;4.25;;;;;;;;4960177;28;45842;-79
2021/06/12 11:49:09;;;;;;;;;4.00;4.00;;;;;;;;4960792;28;45629;-77
2021/06/12 11:51:36;;;;;;;;;6.00;4.25;;;;;;;;4942638;28;45325;-79
2021/06/12 11:54:15;;;;;;;;;3.25;3.25;;;;;;;;4958639;28;47545;-79
2021/06/12 11:56:55;;;;;;;;;4.00;3.00;;;;;;;;4932498;28;46390;-78
2021/06/12 11:59:25;;;;;;;;;5.00;4.00;;;;;;;;4955562;28;45716;-79
2021/06/12 12:02:24;;;;;;;;;3.00;3.00;;;;;;;;4959792;28;52361;-78
2021/06/12 12:04:51;;;;;;;;;5.00;4.00;;;;;;;;4953746;28;46589;-77
2021/06/12 12:07:16;;;;;;;;;7.00;5.00;;;;;;;;4960439;28;46531;-78
2021/06/12 12:09:44;;;;;;;;;4.75;3.25;;;;;;;;4961630;28;45565;-77
2021/06/12 12:12:10;;;;;;;;;3.25;3.25;;;;;;;;4969141;28;45612;-78
2021/06/12 12:14:38;;;;;;;;;3.50;3.50;;;;;;;;4956744;28;46139;-77
2021/06/12 12:17:04;;;;;;;;;4.25;4.25;;;;;;;;4958248;28;45893;-81
2021/06/12 12:19:30;;;;;;;;;4.75;4.00;;;;;;;;4945055;28;45328;-80
2021/06/12 12:21:57;;;;;;;;;7.25;5.00;;;;;;;;4957779;28;48913;-77
2021/06/12 12:24:22;;;;;;;;;4.50;4.00;;;;;;;;4963564;28;45663;-78
2021/06/12 12:31:51;;;;;;;;;4.75;4.50;;;;;;;;5281191;23;44957;-94
2021/06/12 12:34:45;;;;;;;;;4.50;4.25;;;;;;;;4969794;23;45546;-80
2021/06/12 12:37:17;;;;;;;;;3.75;3.75;;;;;;;;4901489;28;46148;-80
2021/06/12 12:39:51;;;;;;;;;5.00;5.00;;;;;;;;4923401;28;45931;-79
2021/06/12 12:42:25;;;;;;;;;6.00;4.75;;;;;;;;4904885;28;48189;-82
2021/06/12 12:50:03;;;;;;;;;4.25;4.25;;;;;;;;5181702;23;45683;-79
2021/06/12 12:52:28;;;;;;;;;5.00;5.00;;;;;;;;4951247;28;46150;-79
2021/06/12 12:55:08;;;;;;;;;4.75;4.25;;;;;;;;4951640;28;46136;-79
2021/06/12 12:57:42;;;;;;;;;4.75;4.75;;;;;;;;4934528;28;45688;-80
2021/06/12 13:00:15;;;;;;;;;5.00;5.00;;;;;;;;4955613;28;45607;-79
2021/06/12 13:02:40;;;;;;;;;4.00;4.00;;;;;;;;4950873;28;46106;-79
2021/06/12 13:05:13;;;;;;;;;6.00;5.00;;;;;;;;4942396;28;47634;-79
2021/06/12 13:07:38;;;;;;;;;6.00;6.00;;;;;;;;4953046;28;45434;-79
2021/06/12 13:10:09;;;;;;;;;7.00;5.75;;;;;;;;4950496;28;46202;-79
2021/06/12 13:12:34;;;;;;;;;6.00;5.75;;;;;;;;4956914;28;45542;-79
2021/06/12 13:15:01;;;;;;;;;4.00;4.00;;;;;;;;4954528;28;46048;-79
2021/06/12 13:17:28;;;;;;;;;6.50;5.00;;;;;;;;4953720;28;45694;-79
2021/06/12 13:20:06;;;;;;;;;4.50;4.50;;;;;;;;4961193;28;45584;-79
2021/06/12 13:22:42;;;;;;;;;8.00;6.25;;;;;;;;4941305;28;45615;-79
2021/06/12 13:25:13;;;;;;;;;7.00;6.75;;;;;;;;4948651;28;45616;-79
2021/06/12 13:28:00;;;;;;;;;9.50;7.25;;;;;;;;4959605;28;45548;-79
2021/06/12 13:30:28;;;;;;;;;8.75;7.00;;;;;;;;4955869;28;45549;-79
2021/06/12 13:32:55;;;;;;;;;7.25;6.00;;;;;;;;4948600;28;45567;-79
2021/06/12 13:35:21;;;;;;;;;7.75;6.75;;;;;;;;4950314;28;46232;-79
2021/06/12 13:38:05;;;;;;;;;9.25;7.25;;;;;;;;4956407;28;45524;-79
2021/06/12 13:40:31;;;;;;;;;8.00;8.00;;;;;;;;4954520;28;45513;-79
2021/06/12 13:42:56;;;;;;;;;10.50;9.75;;;;;;;;4953324;28;45383;-79
2021/06/12 13:45:21;;;;;;;;;15.00;11.25;;;;;;;;4957740;28;46010;-79
2021/06/12 13:47:46;;;;;;;;;12.00;12.00;;;;;;;;4948498;28;45569;-79
2021/06/12 13:50:12;;;;;;;;;10.67;10.67;;;;;;;;4954422;28;45815;-79
2021/06/12 13:52:37;;;;;;;;;12.75;8.00;;;;;;;;4947737;28;46423;-80
2021/06/12 13:55:06;;;;;;;;;14.75;12.00;;;;;;;;4917232;28;46953;-79
2021/06/12 13:57:32;;;;;;;;;12.25;12.00;;;;;;;;4956510;28;45688;-81
2021/06/12 13:59:57;;;;;;;;;17.00;13.00;;;;;;;;4950951;28;45610;-82
2021/06/12 14:02:22;;;;;;;;;18.75;14.75;;;;;;;;4951166;28;45550;-80
2021/06/12 14:04:48;;;;;;;;;14.00;14.00;;;;;;;;4959445;28;46636;-81
2021/06/12 14:07:13;;;;;;;;;15.00;13.75;;;;;;;;4932801;28;45562;-80
2021/06/12 14:09:38;;;;;;;;;15.00;11.33;;;;;;;;4955379;28;45562;-81
2021/06/12 14:12:04;;;;;;;;;13.67;13.00;;;;;;;;4952188;28;45554;-80
2021/06/12 14:14:29;;;;;;;;;15.50;13.00;;;;;;;;4932367;28;45774;-81
2021/06/12 14:16:54;;;;;;;;;13.00;13.00;;;;;;;;4948027;28;46306;-80
2021/06/12 14:19:20;;;;;;;;;15.25;14.75;;;;;;;;4937589;28;45887;-81
2021/06/12 14:21:45;;;;;;;;;19.25;12.25;;;;;;;;4939930;28;45762;-84
2021/06/12 14:24:14;;;;;;;;;16.75;15.50;;;;;;;;4950784;28;45665;-83
2021/06/12 14:26:39;;;;;;;;;17.25;14.50;;;;;;;;4933671;28;45662;-83
2021/06/12 14:29:04;;;;;;;;;16.25;14.75;;;;;;;;4946865;28;45583;-84
2021/06/12 14:31:30;;;;;;;;;18.50;17.00;;;;;;;;4952057;28;48871;-84
2021/06/12 14:33:55;;;;;;;;;17.75;13.75;;;;;;;;4930393;28;47872;-83
2021/06/12 14:36:28;;;;;;;;;21.00;18.00;;;;;;;;4954104;28;48780;-84
2021/06/12 14:38:53;;;;;;;;;13.75;13.75;;;;;;;;4950688;28;46110;-84
2021/06/12 14:41:19;;;;;;;;;18.00;15.50;;;;;;;;4945179;28;45753;-84
2021/06/12 14:43:44;;;;;;;;;20.75;18.25;;;;;;;;4952665;28;48321;-83
2021/06/12 14:46:09;;;;;;;;;20.75;16.50;;;;;;;;4941541;28;45605;-84
2021/06/12 14:48:37;;;;;;;;;16.50;13.50;;;;;;;;4932403;28;45870;-84
2021/06/12 14:51:03;;;;;;;;;18.50;13.50;;;;;;;;4920518;28;46600;-83
2021/06/12 14:53:30;;;;;;;;;16.25;13.50;;;;;;;;4949507;28;49154;-83
2021/06/12 14:55:55;;;;;;;;;19.00;17.25;;;;;;;;4954208;28;46411;-84
2021/06/12 14:58:21;;;;;;;;;21.25;17.75;;;;;;;;4938689;28;45626;-83
2021/06/12 15:00:49;;;;;;;;;17.00;15.00;;;;;;;;4959798;28;45694;-83
2021/06/12 15:03:20;;;;;;;;;21.25;18.00;;;;;;;;4955265;28;46286;-84
2021/06/12 15:05:45;;;;;;;;;20.25;17.00;;;;;;;;4927474;28;45702;-85
2021/06/12 15:08:11;;;;;;;;;19.50;17.00;;;;;;;;4931739;28;45757;-84
2021/06/12 15:10:36;;;;;;;;;18.00;15.00;;;;;;;;4951744;28;45701;-84
2021/06/12 15:13:01;;;;;;;;;23.75;16.75;;;;;;;;4933217;28;46958;-84
2021/06/12 15:15:27;;;;;;;;;21.25;16.50;;;;;;;;4952707;28;45447;-84
2021/06/12 15:17:54;;;;;;;;;21.00;17.50;;;;;;;;4951029;28;45838;-84
2021/06/12 15:20:20;;;;;;;;;20.50;17.75;;;;;;;;4957554;28;45662;-84
2021/06/12 15:22:48;;;;;;;;;17.25;13.75;;;;;;;;4950531;28;46450;-85
2021/06/12 15:25:16;;;;;;;;;22.25;16.75;;;;;;;;4936884;28;46496;-84